Terminal Aerodrome Forecast
Issued by NWS

Home | Current Version | Previous Version | Text Only | Print | Product List | Glossary On
Versions: 1 2 3 4 5 6 7 8 9 10 11 12 13 14 15 16 17 18
000
FTUS44 KMAF 101600 AAA
TAFINK
TAF AMD
KINK 101612Z 1016/1112 15014KT P6SM SKC
     FM101800 14015G25KT P6SM SKC
     FM110200 14010KT P6SM SKC=

USA.gov is the U.S. government's official web portal to all federal, state and local government web resources and services.